Time;durP1;ratioP1;P1;durP2;ratioP2;P2;SDS_P1;SDS_P2;PMS_P1;PMS_P2;Temp;Humidity;BMP_temperature;BMP_pressure;BME280_temperature;BME280_humidity;BME280_pressure;Samples;Min_cycle;Max_cycle;Signal;HPM_P1;HPM_P2
2021/05/28 00:02:06;;;;;;;14.63;5.43;;;;;;;;;;5036952;28;20459;-55
2021/05/28 00:04:34;;;;;;;10.30;5.37;;;;;;;;;;5037169;28;20519;-55
2021/05/28 00:07:01;;;;;;;8.80;5.40;;;;;;;;;;5035857;28;20497;-58
2021/05/28 00:09:28;;;;;;;8.73;5.13;;;;;;;;;;5036640;28;20467;-55
2021/05/28 00:11:55;;;;;;;11.57;5.23;;;;;;;;;;5036742;28;20447;-56
2021/05/28 00:14:22;;;;;;;8.23;5.43;;;;;;;;;;5036226;28;20489;-55
2021/05/28 00:16:49;;;;;;;13.40;6.03;;;;;;;;;;5035723;28;20462;-58
2021/05/28 00:19:17;;;;;;;12.90;6.80;;;;;;;;;;5036941;28;20482;-58
2021/05/28 00:21:47;;;;;;;12.80;5.67;;;;;;;;;;5035242;28;20478;-52
2021/05/28 00:24:14;;;;;;;10.50;5.23;;;;;;;;;;5037030;28;20453;-58
2021/05/28 00:26:43;;;;;;;8.70;5.50;;;;;;;;;;5036127;28;20707;-55
2021/05/28 00:29:10;;;;;;;8.93;5.27;;;;;;;;;;5036530;28;20498;-57
2021/05/28 00:31:37;;;;;;;11.60;5.77;;;;;;;;;;5037218;28;20439;-51
2021/05/28 00:34:04;;;;;;;11.60;6.53;;;;;;;;;;5036692;28;20438;-51
2021/05/28 00:36:31;;;;;;;8.77;6.17;;;;;;;;;;5036005;28;20455;-56
2021/05/28 00:39:13;;;;;;;10.83;6.73;;;;;;;;;;5036806;28;20543;-57
2021/05/28 00:41:40;;;;;;;12.90;6.63;;;;;;;;;;5034319;28;20909;-60
2021/05/28 00:44:07;;;;;;;16.50;6.13;;;;;;;;;;5035344;28;20458;-58
2021/05/28 00:46:34;;;;;;;11.67;6.10;;;;;;;;;;5036013;28;20477;-54
2021/05/28 00:49:01;;;;;;;21.73;7.30;;;;;;;;;;5036153;28;20591;-58
2021/05/28 00:51:32;;;;;;;14.63;5.40;;;;;;;;;;5036118;28;20445;-58
2021/05/28 00:53:59;;;;;;;14.60;6.27;;;;;;;;;;5036634;28;20462;-53
2021/05/28 00:56:27;;;;;;;12.60;6.47;;;;;;;;;;5035616;28;20514;-59
2021/05/28 00:58:59;;;;;;;13.10;6.90;;;;;;;;;;5035679;28;20478;-53
2021/05/28 01:01:26;;;;;;;10.30;6.70;;;;;;;;;;5036149;28;20455;-55
2021/05/28 01:04:07;;;;;;;13.17;6.80;;;;;;;;;;5036425;28;20435;-56
2021/05/28 01:06:34;;;;;;;13.63;6.70;;;;;;;;;;5036134;28;20459;-53
2021/05/28 01:09:01;;;;;;;16.53;6.77;;;;;;;;;;5035868;28;20450;-52
2021/05/28 01:11:29;;;;;;;10.73;7.23;;;;;;;;;;5035188;28;20486;-48
2021/05/28 01:13:56;;;;;;;12.50;6.80;;;;;;;;;;5036098;28;20522;-55
2021/05/28 01:16:24;;;;;;;8.43;5.37;;;;;;;;;;5035939;28;20439;-52
2021/05/28 01:18:51;;;;;;;11.70;6.73;;;;;;;;;;5035660;28;20498;-56
2021/05/28 01:21:19;;;;;;;10.90;7.03;;;;;;;;;;5035326;28;20443;-55
2021/05/28 01:23:47;;;;;;;15.70;7.57;;;;;;;;;;5035520;28;20616;-57
2021/05/28 01:26:14;;;;;;;14.57;7.67;;;;;;;;;;5036049;28;20450;-55
2021/05/28 01:28:41;;;;;;;19.00;8.60;;;;;;;;;;5035469;28;20459;-56
2021/05/28 01:31:10;;;;;;;9.30;5.63;;;;;;;;;;5035671;28;20459;-51
2021/05/28 01:33:40;;;;;;;14.60;7.60;;;;;;;;;;5035915;28;20503;-57
2021/05/28 01:36:07;;;;;;;11.17;7.37;;;;;;;;;;5035382;28;20446;-55
2021/05/28 01:38:34;;;;;;;12.60;7.60;;;;;;;;;;5034954;28;20555;-53
2021/05/28 01:41:02;;;;;;;13.13;6.97;;;;;;;;;;5034235;28;20489;-55
2021/05/28 01:43:30;;;;;;;10.70;6.97;;;;;;;;;;5035654;28;20447;-56
2021/05/28 01:46:04;;;;;;;24.73;7.13;;;;;;;;;;5035490;28;20443;-54
2021/05/28 01:48:31;;;;;;;12.83;7.27;;;;;;;;;;5035188;28;20450;-56
2021/05/28 01:50:58;;;;;;;12.80;7.57;;;;;;;;;;5035508;28;20514;-56
2021/05/28 01:53:26;;;;;;;15.27;7.63;;;;;;;;;;5034978;28;20458;-57
2021/05/28 01:55:54;;;;;;;10.80;7.73;;;;;;;;;;5034938;28;20469;-46
2021/05/28 01:58:23;;;;;;;21.27;8.30;;;;;;;;;;5034548;28;20477;-55
2021/05/28 02:00:51;;;;;;;22.07;8.17;;;;;;;;;;5035344;28;20442;-58
2021/05/28 02:03:20;;;;;;;18.17;9.17;;;;;;;;;;5034629;28;20499;-57
2021/05/28 02:05:47;;;;;;;19.27;9.60;;;;;;;;;;5035482;28;20494;-57
2021/05/28 02:08:14;;;;;;;13.67;8.93;;;;;;;;;;5034539;28;20502;-54
2021/05/28 02:10:41;;;;;;;17.30;9.27;;;;;;;;;;5035277;28;20519;-57
2021/05/28 02:13:08;;;;;;;13.63;8.70;;;;;;;;;;5034825;28;20489;-53
2021/05/28 02:15:42;;;;;;;16.40;9.73;;;;;;;;;;5034948;28;20451;-54
2021/05/28 02:18:10;;;;;;;25.83;11.10;;;;;;;;;;5035059;28;20505;-51
2021/05/28 02:20:37;;;;;;;18.20;10.70;;;;;;;;;;5034684;28;20538;-50
2021/05/28 02:23:04;;;;;;;14.63;9.73;;;;;;;;;;5034697;28;20490;-52
2021/05/28 02:25:31;;;;;;;17.77;9.33;;;;;;;;;;5034112;28;20461;-55
2021/05/28 02:28:07;;;;;;;14.20;8.73;;;;;;;;;;5030043;28;20490;-53
2021/05/28 02:30:34;;;;;;;21.90;8.80;;;;;;;;;;5033044;28;20458;-52
2021/05/28 02:33:02;;;;;;;16.97;9.90;;;;;;;;;;5035366;28;20461;-52
2021/05/28 02:35:29;;;;;;;20.23;9.63;;;;;;;;;;5035093;28;20458;-52
2021/05/28 02:37:56;;;;;;;16.50;9.80;;;;;;;;;;5035406;28;20530;-55
2021/05/28 02:40:22;;;;;;;15.93;10.33;;;;;;;;;;5034253;28;20525;-56
2021/05/28 02:42:49;;;;;;;16.20;9.13;;;;;;;;;;5034720;28;20487;-59
2021/05/28 02:45:22;;;;;;;19.63;11.20;;;;;;;;;;5037216;28;20495;-56
2021/05/28 02:47:57;;;;;;;19.60;10.13;;;;;;;;;;5029758;28;20442;-54
2021/05/28 02:50:25;;;;;;;25.63;12.03;;;;;;;;;;5037086;28;20462;-56
2021/05/28 02:52:51;;;;;;;17.77;11.83;;;;;;;;;;5039072;28;20457;-58
2021/05/28 02:55:18;;;;;;;24.77;13.03;;;;;;;;;;5038934;28;20447;-54
2021/05/28 02:57:48;;;;;;;27.53;12.60;;;;;;;;;;5038525;28;20453;-58
2021/05/28 03:00:16;;;;;;;14.00;11.30;;;;;;;;;;5038489;28;20494;-56
2021/05/28 03:02:43;;;;;;;17.73;12.50;;;;;;;;;;5038037;28;20466;-57
2021/05/28 03:05:12;;;;;;;24.13;12.70;;;;;;;;;;5038835;28;20461;-54
2021/05/28 03:07:40;;;;;;;19.53;11.93;;;;;;;;;;5035930;28;20560;-50
2021/05/28 03:10:07;;;;;;;17.60;12.87;;;;;;;;;;5037459;28;20466;-55
2021/05/28 03:12:36;;;;;;;21.60;12.00;;;;;;;;;;5038209;28;20529;-60
2021/05/28 03:15:03;;;;;;;16.07;12.30;;;;;;;;;;5037671;28;20446;-57
2021/05/28 03:17:30;;;;;;;23.87;12.83;;;;;;;;;;5038276;28;20423;-57
2021/05/28 03:19:57;;;;;;;18.23;13.17;;;;;;;;;;5037885;28;20493;-55
2021/05/28 03:22:34;;;;;;;22.33;14.23;;;;;;;;;;5037269;28;20450;-54
2021/05/28 03:25:02;;;;;;;20.57;14.53;;;;;;;;;;5037769;28;20469;-59
2021/05/28 03:27:29;;;;;;;24.27;12.73;;;;;;;;;;5037517;28;20451;-54
2021/05/28 03:30:14;;;;;;;20.53;13.13;;;;;;;;;;5037256;28;20666;-57
2021/05/28 03:32:41;;;;;;;16.20;13.33;;;;;;;;;;5037793;28;20466;-58
2021/05/28 03:35:10;;;;;;;21.07;14.77;;;;;;;;;;5021666;28;20452;-56
2021/05/28 03:37:41;;;;;;;19.07;13.63;;;;;;;;;;5037104;28;20458;-57
2021/05/28 03:40:11;;;;;;;16.17;12.40;;;;;;;;;;5027840;28;20502;-55
2021/05/28 03:42:48;;;;;;;18.40;12.50;;;;;;;;;;5017698;28;20452;-50
2021/05/28 03:45:16;;;;;;;16.30;12.30;;;;;;;;;;5016988;28;20551;-57
2021/05/28 03:47:43;;;;;;;22.30;13.43;;;;;;;;;;5017493;28;20498;-58
2021/05/28 03:50:12;;;;;;;17.80;13.43;;;;;;;;;;5017301;28;20887;-59
2021/05/28 03:52:39;;;;;;;19.07;13.50;;;;;;;;;;5016948;28;20502;-53
2021/05/28 03:55:06;;;;;;;27.70;16.60;;;;;;;;;;5017253;28;20558;-55
2021/05/28 03:57:34;;;;;;;21.47;14.97;;;;;;;;;;5016980;28;20463;-53
2021/05/28 04:00:03;;;;;;;25.83;15.25;;;;;;;;;;5016376;28;20476;-56
2021/05/28 04:02:32;;;;;;;31.33;16.60;;;;;;;;;;5017413;28;20220;-54
2021/05/28 04:05:04;;;;;;;18.80;15.03;;;;;;;;;;5017208;28;20519;-55
2021/05/28 04:07:34;;;;;;;23.03;13.77;;;;;;;;;;5015844;28;20512;-59
2021/05/28 04:10:01;;;;;;;33.87;16.40;;;;;;;;;;5016612;28;20456;-55
2021/05/28 04:12:28;;;;;;;23.00;14.23;;;;;;;;;;5016676;28;20448;-51
2021/05/28 04:14:56;;;;;;;17.20;13.53;;;;;;;;;;5015894;28;20515;-57
2021/05/28 04:17:23;;;;;;;16.40;13.63;;;;;;;;;;5015978;28;20460;-56
2021/05/28 04:19:50;;;;;;;26.63;14.30;;;;;;;;;;5018668;28;20491;-57
2021/05/28 04:22:18;;;;;;;22.67;14.93;;;;;;;;;;5036129;28;20479;-58
2021/05/28 04:24:45;;;;;;;19.87;13.60;;;;;;;;;;5036951;28;20615;-54
2021/05/28 04:27:12;;;;;;;22.30;13.10;;;;;;;;;;5041853;28;20446;-57
2021/05/28 04:29:39;;;;;;;24.17;14.20;;;;;;;;;;5055783;28;20616;-51
2021/05/28 04:32:08;;;;;;;21.40;14.37;;;;;;;;;;5054512;28;20457;-55
2021/05/28 04:34:34;;;;;;;21.17;13.23;;;;;;;;;;5055419;28;20456;-55
2021/05/28 04:37:02;;;;;;;22.57;15.53;;;;;;;;;;5055424;28;20493;-57
2021/05/28 04:39:39;;;;;;;24.30;13.57;;;;;;;;;;5048954;28;20475;-56
2021/05/28 04:42:06;;;;;;;27.83;15.30;;;;;;;;;;5034993;28;20510;-55
2021/05/28 04:44:33;;;;;;;23.87;15.57;;;;;;;;;;5034755;28;20435;-58
2021/05/28 04:47:01;;;;;;;20.03;13.90;;;;;;;;;;5035724;28;20507;-54
2021/05/28 04:49:29;;;;;;;22.60;13.37;;;;;;;;;;5035113;28;20463;-57
2021/05/28 04:51:56;;;;;;;22.23;11.90;;;;;;;;;;5035363;28;20852;-52
2021/05/28 04:54:39;;;;;;;18.70;13.03;;;;;;;;;;5035478;28;20474;-55
2021/05/28 04:57:06;;;;;;;23.10;15.00;;;;;;;;;;5034485;28;20443;-56
2021/05/28 04:59:46;;;;;;;20.90;14.30;;;;;;;;;;5033384;28;20490;-59
2021/05/28 05:02:13;;;;;;;26.77;15.50;;;;;;;;;;5025638;28;20455;-57
2021/05/28 05:04:58;;;;;;;18.90;14.97;;;;;;;;;;5015690;28;20447;-56
2021/05/28 05:07:25;;;;;;;18.87;14.67;;;;;;;;;;5014455;28;20495;-55
2021/05/28 05:09:53;;;;;;;33.60;16.63;;;;;;;;;;5014935;28;20495;-56
2021/05/28 05:12:26;;;;;;;28.57;15.30;;;;;;;;;;5016703;28;20470;-57
2021/05/28 05:14:53;;;;;;;25.17;16.93;;;;;;;;;;5032481;28;20483;-57
2021/05/28 05:17:20;;;;;;;22.67;16.37;;;;;;;;;;5034324;28;20458;-58
2021/05/28 05:19:51;;;;;;;26.43;18.80;;;;;;;;;;5034312;28;20908;-58
2021/05/28 05:22:18;;;;;;;22.33;16.67;;;;;;;;;;5049896;28;20480;-59
2021/05/28 05:24:48;;;;;;;30.80;16.60;;;;;;;;;;5042921;28;20444;-57
2021/05/28 05:27:16;;;;;;;27.03;17.00;;;;;;;;;;5014499;28;20506;-56
2021/05/28 05:29:43;;;;;;;21.67;17.10;;;;;;;;;;5015239;28;20452;-54
2021/05/28 05:32:15;;;;;;;21.77;16.97;;;;;;;;;;5014721;28;20487;-58
2021/05/28 05:34:43;;;;;;;26.13;16.50;;;;;;;;;;5023873;28;20486;-56
2021/05/28 05:37:19;;;;;;;28.70;17.50;;;;;;;;;;5035747;28;20470;-56
2021/05/28 05:39:52;;;;;;;25.43;15.10;;;;;;;;;;5035617;28;20485;-55
2021/05/28 05:42:19;;;;;;;21.73;15.60;;;;;;;;;;5034190;28;20493;-55
2021/05/28 05:44:46;;;;;;;23.83;13.73;;;;;;;;;;5034330;28;20466;-52
2021/05/28 05:47:14;;;;;;;22.30;15.33;;;;;;;;;;5035193;28;20416;-54
2021/05/28 05:49:50;;;;;;;21.97;15.63;;;;;;;;;;5035482;28;20462;-55
2021/05/28 05:52:19;;;;;;;20.67;15.60;;;;;;;;;;5034593;28;20458;-57
2021/05/28 05:54:46;;;;;;;23.57;16.03;;;;;;;;;;5034316;28;20455;-56
2021/05/28 05:57:24;;;;;;;21.10;14.83;;;;;;;;;;5033642;28;20469;-55
2021/05/28 05:59:57;;;;;;;24.33;16.47;;;;;;;;;;5016213;28;20495;-54
2021/05/28 06:02:40;;;;;;;18.00;14.67;;;;;;;;;;5014355;28;20480;-57
2021/05/28 06:05:07;;;;;;;24.53;16.00;;;;;;;;;;5014490;28;20510;-56
2021/05/28 06:07:35;;;;;;;19.93;14.80;;;;;;;;;;5014577;28;20454;-53
2021/05/28 06:10:02;;;;;;;23.57;15.27;;;;;;;;;;5014142;28;20491;-58
2021/05/28 06:12:43;;;;;;;18.87;13.80;;;;;;;;;;5014950;28;20438;-52
2021/05/28 06:15:10;;;;;;;20.33;11.17;;;;;;;;;;5014079;28;20452;-52
2021/05/28 06:17:37;;;;;;;17.70;10.13;;;;;;;;;;5014171;28;20514;-49
2021/05/28 06:20:05;;;;;;;11.20;8.03;;;;;;;;;;5013828;28;20487;-58
2021/05/28 06:22:32;;;;;;;14.17;10.03;;;;;;;;;;5014394;28;20463;-56
2021/05/28 06:25:00;;;;;;;15.90;10.33;;;;;;;;;;5016320;28;20428;-50
2021/05/28 06:27:27;;;;;;;14.57;9.30;;;;;;;;;;5017621;28;20464;-53
2021/05/28 06:29:55;;;;;;;18.70;11.67;;;;;;;;;;5018800;28;20460;-49
2021/05/28 06:32:22;;;;;;;17.83;11.00;;;;;;;;;;5035690;28;20534;-50
2021/05/28 06:35:03;;;;;;;16.63;10.90;;;;;;;;;;5049416;28;20537;-55
2021/05/28 06:37:40;;;;;;;18.40;11.43;;;;;;;;;;5049273;28;20434;-50
2021/05/28 06:40:08;;;;;;;15.33;10.80;;;;;;;;;;5024770;28;20574;-51
2021/05/28 06:42:41;;;;;;;20.33;13.50;;;;;;;;;;5039949;28;20458;-54
2021/05/28 06:45:10;;;;;;;15.37;9.80;;;;;;;;;;5038878;28;20453;-53
2021/05/28 06:47:37;;;;;;;16.77;9.60;;;;;;;;;;5037806;28;20545;-52
2021/05/28 06:50:04;;;;;;;15.40;11.47;;;;;;;;;;5037169;28;20453;-54
2021/05/28 06:52:32;;;;;;;10.10;7.37;;;;;;;;;;5037126;28;20514;-48
2021/05/28 06:55:04;;;;;;;10.70;6.47;;;;;;;;;;5037884;28;20584;-56
2021/05/28 06:57:47;;;;;;;15.77;6.93;;;;;;;;;;5038180;28;20521;-55
2021/05/28 07:00:18;;;;;;;10.47;7.43;;;;;;;;;;5036871;28;20486;-55
2021/05/28 07:02:45;;;;;;;11.00;6.30;;;;;;;;;;5037304;28;20443;-55
2021/05/28 07:05:14;;;;;;;13.30;7.33;;;;;;;;;;5036272;28;20454;-58
2021/05/28 07:07:45;;;;;;;8.87;5.67;;;;;;;;;;5037371;28;20510;-51
2021/05/28 07:10:13;;;;;;;10.50;6.50;;;;;;;;;;5035611;28;20514;-56
2021/05/28 07:12:41;;;;;;;10.00;6.83;;;;;;;;;;5036347;28;20561;-51
2021/05/28 07:15:09;;;;;;;9.00;7.00;;;;;;;;;;5036323;28;20459;-54
2021/05/28 07:17:37;;;;;;;11.73;8.17;;;;;;;;;;5036535;28;20463;-54
2021/05/28 07:20:07;;;;;;;18.03;9.10;;;;;;;;;;5035325;28;20478;-56
2021/05/28 07:22:35;;;;;;;12.90;6.23;;;;;;;;;;5036857;28;20599;-52
2021/05/28 07:25:02;;;;;;;11.83;6.80;;;;;;;;;;5035722;28;20455;-51
2021/05/28 07:27:31;;;;;;;13.00;8.97;;;;;;;;;;5036339;28;20505;-55
2021/05/28 07:30:08;;;;;;;14.93;7.77;;;;;;;;;;5035223;28;20517;-56
2021/05/28 07:32:35;;;;;;;12.10;8.10;;;;;;;;;;4996839;28;20448;-52
2021/05/28 07:35:16;;;;;;;15.00;9.10;;;;;;;;;;4995968;28;20495;-56
2021/05/28 07:37:44;;;;;;;13.37;9.23;;;;;;;;;;4997961;28;20500;-56
2021/05/28 07:40:17;;;;;;;11.33;8.27;;;;;;;;;;4997017;28;20500;-54
2021/05/28 07:43:03;;;;;;;13.73;9.40;;;;;;;;;;5001809;28;20487;-56
2021/05/28 07:45:37;;;;;;;14.07;8.63;;;;;;;;;;5026827;28;20493;-52
2021/05/28 07:48:05;;;;;;;17.13;9.53;;;;;;;;;;5035957;28;20458;-56
2021/05/28 07:53:18;;;;;;;13.70;9.57;;;;;;;;;;5022141;28;20438;-53
2021/05/28 07:55:54;;;;;;;13.60;7.70;;;;;;;;;;5015894;28;20439;-50
2021/05/28 07:58:23;;;;;;;10.87;7.53;;;;;;;;;;5016851;28;20511;-53
2021/05/28 08:00:50;;;;;;;12.00;5.97;;;;;;;;;;5018756;28;20487;-55
2021/05/28 08:03:18;;;;;;;13.73;7.67;;;;;;;;;;5035191;28;20519;-56
2021/05/28 08:05:51;;;;;;;9.97;8.67;;;;;;;;;;5036134;28;20454;-52
2021/05/28 08:08:19;;;;;;;7.87;6.27;;;;;;;;;;5035634;28;20447;-51
2021/05/28 08:10:46;;;;;;;12.70;7.40;;;;;;;;;;5034833;28;20439;-59
2021/05/28 08:13:14;;;;;;;10.10;6.27;;;;;;;;;;5034926;28;20454;-52
2021/05/28 08:15:44;;;;;;;7.40;5.83;;;;;;;;;;5034885;28;20565;-56
2021/05/28 08:18:14;;;;;;;8.53;5.63;;;;;;;;;;5031992;28;20475;-60
2021/05/28 08:20:42;;;;;;;10.40;6.23;;;;;;;;;;5035366;28;20517;-59
2021/05/28 08:23:11;;;;;;;9.40;5.83;;;;;;;;;;5035287;28;20475;-55
2021/05/28 08:25:44;;;;;;;13.00;5.20;;;;;;;;;;5034939;28;20447;-60
2021/05/28 08:28:15;;;;;;;9.33;6.27;;;;;;;;;;5034738;28;20471;-52
2021/05/28 08:30:45;;;;;;;9.73;5.53;;;;;;;;;;5035241;28;20457;-60
2021/05/28 08:33:12;;;;;;;9.07;5.80;;;;;;;;;;5020189;28;20891;-54
2021/05/28 08:35:39;;;;;;;10.93;5.63;;;;;;;;;;5033179;28;20486;-55
2021/05/28 08:38:06;;;;;;;11.07;6.43;;;;;;;;;;5034517;28;20459;-56
2021/05/28 08:40:35;;;;;;;9.40;5.40;;;;;;;;;;5033377;28;20494;-59
2021/05/28 08:43:03;;;;;;;8.80;5.53;;;;;;;;;;5033671;28;20471;-55
2021/05/28 08:45:40;;;;;;;9.70;6.00;;;;;;;;;;5034258;28;20432;-59
2021/05/28 08:48:09;;;;;;;9.53;6.10;;;;;;;;;;5033823;28;20453;-54
2021/05/28 08:50:36;;;;;;;8.03;5.97;;;;;;;;;;5035204;28;20447;-50
2021/05/28 08:53:04;;;;;;;7.70;5.33;;;;;;;;;;5035088;28;20447;-53
2021/05/28 08:55:31;;;;;;;8.70;5.03;;;;;;;;;;5034936;28;20581;-58
2021/05/28 08:58:12;;;;;;;11.13;6.17;;;;;;;;;;5033409;28;20454;-52
2021/05/28 09:00:39;;;;;;;8.50;6.07;;;;;;;;;;5031802;28;20505;-52
2021/05/28 09:03:20;;;;;;;9.10;6.33;;;;;;;;;;5033711;28;20717;-55
2021/05/28 09:05:54;;;;;;;9.20;6.13;;;;;;;;;;5024967;28;20435;-59
2021/05/28 09:08:27;;;;;;;10.47;5.50;;;;;;;;;;5034747;28;20529;-55
2021/05/28 09:10:55;;;;;;;10.43;6.03;;;;;;;;;;5034910;28;20442;-59
2021/05/28 09:13:26;;;;;;;11.57;7.57;;;;;;;;;;5035796;28;20439;-54
2021/05/28 09:16:11;;;;;;;6.50;4.00;;;;;;;;;;5034984;28;20586;-54
2021/05/28 09:18:43;;;;;;;6.57;5.00;;;;;;;;;;5034131;28;20443;-57
2021/05/28 09:21:12;;;;;;;9.90;6.40;;;;;;;;;;5034162;28;20477;-54
2021/05/28 09:23:39;;;;;;;7.27;5.53;;;;;;;;;;5033026;28;20431;-53
2021/05/28 09:26:07;;;;;;;11.73;7.13;;;;;;;;;;5032898;28;20467;-53
2021/05/28 09:28:40;;;;;;;9.50;6.37;;;;;;;;;;5048983;28;20911;-54
2021/05/28 09:31:13;;;;;;;17.07;5.63;;;;;;;;;;5026471;28;20602;-55
2021/05/28 09:33:41;;;;;;;8.50;5.47;;;;;;;;;;5034110;28;20467;-54
2021/05/28 09:36:13;;;;;;;8.33;4.93;;;;;;;;;;5032858;28;20428;-57
2021/05/28 09:38:54;;;;;;;8.17;6.83;;;;;;;;;;5033470;28;20430;-58
2021/05/28 09:41:37;;;;;;;10.00;7.07;;;;;;;;;;5032889;28;20490;-55
2021/05/28 09:44:13;;;;;;;10.67;6.10;;;;;;;;;;5038112;28;20451;-55
2021/05/28 09:47:02;;;;;;;13.67;5.90;;;;;;;;;;5020598;28;20465;-59
2021/05/28 09:49:30;;;;;;;13.87;6.13;;;;;;;;;;5026510;28;20467;-59
2021/05/28 09:52:11;;;;;;;7.50;5.50;;;;;;;;;;5032998;28;20469;-58
2021/05/28 09:54:58;;;;;;;8.10;5.70;;;;;;;;;;5032858;28;20486;-59
2021/05/28 09:57:33;;;;;;;8.23;5.20;;;;;;;;;;5032820;28;20446;-56
2021/05/28 10:00:13;;;;;;;10.97;5.10;;;;;;;;;;5033121;28;20558;-51
2021/05/28 10:02:42;;;;;;;8.00;5.50;;;;;;;;;;5032494;28;20476;-55
2021/05/28 10:05:10;;;;;;;11.20;5.20;;;;;;;;;;5032996;28;20482;-54
2021/05/28 10:07:37;;;;;;;10.07;5.30;;;;;;;;;;5032978;28;20524;-59
2021/05/28 10:10:05;;;;;;;6.77;4.97;;;;;;;;;;5033540;28;20490;-56
2021/05/28 10:12:32;;;;;;;9.63;4.97;;;;;;;;;;5032858;28;20513;-54
2021/05/28 10:15:04;;;;;;;7.13;4.73;;;;;;;;;;5032403;28;20455;-57
2021/05/28 10:17:32;;;;;;;7.60;4.47;;;;;;;;;;5032317;28;20446;-57
2021/05/28 10:19:59;;;;;;;8.50;4.20;;;;;;;;;;5032841;28;20515;-55
2021/05/28 10:22:27;;;;;;;15.97;5.70;;;;;;;;;;5032311;28;20477;-57
2021/05/28 10:24:57;;;;;;;9.77;4.13;;;;;;;;;;5015206;28;20456;-59
2021/05/28 10:27:25;;;;;;;6.50;4.03;;;;;;;;;;5021283;28;20494;-57
2021/05/28 10:30:01;;;;;;;6.77;4.87;;;;;;;;;;5024463;28;20499;-54
2021/05/28 10:32:28;;;;;;;7.97;5.23;;;;;;;;;;5012182;28;20447;-55
2021/05/28 10:35:09;;;;;;;11.57;4.10;;;;;;;;;;5012784;28;20523;-55
2021/05/28 10:37:36;;;;;;;7.50;3.70;;;;;;;;;;5012783;28;20511;-54
2021/05/28 10:40:23;;;;;;;8.50;4.40;;;;;;;;;;5028795;28;20498;-52
2021/05/28 10:43:04;;;;;;;6.70;3.50;;;;;;;;;;5030850;28;20658;-58
2021/05/28 10:45:50;;;;;;;8.90;5.33;;;;;;;;;;5029103;28;20529;-58
2021/05/28 10:48:18;;;;;;;6.13;4.60;;;;;;;;;;5030863;28;20466;-57
2021/05/28 10:51:13;;;;;;;6.67;3.80;;;;;;;;;;5033224;28;20451;-56
2021/05/28 10:53:41;;;;;;;7.80;4.30;;;;;;;;;;5030789;28;20483;-52
2021/05/28 10:56:08;;;;;;;6.10;4.23;;;;;;;;;;5032175;28;20450;-59
2021/05/28 10:58:48;;;;;;;4.10;3.03;;;;;;;;;;5032532;28;20530;-54
2021/05/28 11:01:32;;;;;;;5.37;3.30;;;;;;;;;;5037237;28;20542;-53
2021/05/28 11:04:04;;;;;;;4.73;3.00;;;;;;;;;;5030874;28;20459;-53
2021/05/28 11:06:35;;;;;;;4.47;2.40;;;;;;;;;;5031903;28;20447;-59
2021/05/28 11:09:04;;;;;;;4.97;2.63;;;;;;;;;;5014796;28;20470;-55
2021/05/28 11:11:47;;;;;;;3.70;2.70;;;;;;;;;;5031288;28;20459;-54
2021/05/28 11:14:15;;;;;;;6.70;3.17;;;;;;;;;;5036049;28;20439;-53
2021/05/28 11:17:01;;;;;;;3.30;1.90;;;;;;;;;;5034900;28;20462;-58
2021/05/28 11:19:29;;;;;;;3.80;2.40;;;;;;;;;;5034802;28;20486;-56
2021/05/28 11:22:32;;;;;;;5.30;2.40;;;;;;;;;;5035000;28;20431;-57
2021/05/28 11:25:14;;;;;;;5.60;2.60;;;;;;;;;;5034539;28;20482;-58
2021/05/28 11:27:44;;;;;;;4.67;2.53;;;;;;;;;;5014693;28;20477;-54
2021/05/28 11:30:30;;;;;;;5.60;2.43;;;;;;;;;;5033334;28;20459;-54
2021/05/28 11:32:57;;;;;;;3.40;2.50;;;;;;;;;;5033681;28;20495;-57
2021/05/28 11:35:26;;;;;;;6.97;2.97;;;;;;;;;;5034098;28;20457;-55
2021/05/28 11:37:56;;;;;;;5.83;3.10;;;;;;;;;;5034390;28;20438;-55
2021/05/28 11:43:39;;;;;;;4.67;2.30;;;;;;;;;;5035579;28;20402;-57
2021/05/28 11:46:06;;;;;;;7.40;2.70;;;;;;;;;;5034458;28;20482;-55
2021/05/28 11:48:36;;;;;;;5.70;2.83;;;;;;;;;;5034530;28;20463;-55
2021/05/28 11:51:04;;;;;;;4.73;3.00;;;;;;;;;;5034613;28;20451;-58
2021/05/28 11:53:32;;;;;;;6.63;2.93;;;;;;;;;;5034643;28;20597;-57
2021/05/28 11:56:10;;;;;;;4.60;2.50;;;;;;;;;;5033525;28;20447;-53
2021/05/28 11:58:42;;;;;;;6.50;2.80;;;;;;;;;;5034806;28;20489;-59
2021/05/28 12:01:14;;;;;;;4.87;2.73;;;;;;;;;;5036036;28;20506;-53
2021/05/28 12:03:46;;;;;;;5.40;2.97;;;;;;;;;;5034679;28;20447;-59
2021/05/28 12:06:15;;;;;;;3.33;2.20;;;;;;;;;;5037003;28;20451;-56
2021/05/28 12:08:43;;;;;;;6.70;2.80;;;;;;;;;;5014878;28;20654;-57
2021/05/28 12:11:12;;;;;;;3.13;2.20;;;;;;;;;;5028363;28;20455;-55
2021/05/28 12:13:51;;;;;;;4.73;2.10;;;;;;;;;;5018562;28;20443;-55
2021/05/28 12:16:21;;;;;;;3.40;1.87;;;;;;;;;;5015008;28;20456;-54
2021/05/28 12:18:55;;;;;;;6.83;2.33;;;;;;;;;;5015929;28;20466;-56
2021/05/28 12:21:22;;;;;;;3.60;2.13;;;;;;;;;;5022343;28;20785;-56
2021/05/28 12:23:51;;;;;;;2.77;1.40;;;;;;;;;;5034118;28;20451;-55
2021/05/28 12:26:20;;;;;;;2.93;1.50;;;;;;;;;;5033707;28;20487;-54
2021/05/28 12:28:48;;;;;;;3.10;1.23;;;;;;;;;;5035857;28;20462;-52
2021/05/28 12:31:19;;;;;;;5.20;2.27;;;;;;;;;;5036346;28;20462;-52
2021/05/28 12:33:53;;;;;;;2.80;1.87;;;;;;;;;;5037081;28;20517;-56
2021/05/28 12:36:27;;;;;;;3.07;1.50;;;;;;;;;;5034293;28;21032;-60
2021/05/28 12:38:56;;;;;;;3.23;1.90;;;;;;;;;;5036230;28;20502;-56
2021/05/28 12:41:43;;;;;;;4.30;1.70;;;;;;;;;;5035610;28;20502;-51
2021/05/28 12:44:11;;;;;;;4.97;2.30;;;;;;;;;;5036397;28;20557;-52
2021/05/28 12:46:39;;;;;;;4.00;2.57;;;;;;;;;;5035692;28;20498;-58
2021/05/28 12:49:37;;;;;;;10.83;2.87;;;;;;;;;;5037277;28;20455;-50
2021/05/28 12:52:13;;;;;;;4.20;2.33;;;;;;;;;;5033908;28;20499;-56
2021/05/28 12:54:41;;;;;;;4.73;2.37;;;;;;;;;;5035768;28;20458;-54
2021/05/28 12:57:30;;;;;;;5.67;3.30;;;;;;;;;;5035340;28;20530;-55
2021/05/28 12:59:57;;;;;;;6.50;3.77;;;;;;;;;;5036286;28;20474;-58
2021/05/28 13:02:28;;;;;;;8.17;4.10;;;;;;;;;;5035893;28;20483;-53
2021/05/28 13:04:56;;;;;;;5.00;3.33;;;;;;;;;;5035900;28;20439;-57
2021/05/28 13:07:36;;;;;;;9.00;5.17;;;;;;;;;;5035802;28;20440;-53
2021/05/28 13:10:17;;;;;;;5.17;3.27;;;;;;;;;;5036051;28;20466;-56
2021/05/28 13:12:56;;;;;;;11.90;4.00;;;;;;;;;;5036140;28;20485;-52
2021/05/28 13:15:25;;;;;;;6.03;3.50;;;;;;;;;;5016552;28;20473;-57
2021/05/28 13:17:55;;;;;;;5.77;3.30;;;;;;;;;;5028387;28;20450;-54
2021/05/28 13:20:25;;;;;;;10.77;6.00;;;;;;;;;;5036328;28;20574;-55
2021/05/28 13:22:54;;;;;;;10.93;5.80;;;;;;;;;;5036709;28;20489;-52
2021/05/28 13:25:25;;;;;;;6.43;3.33;;;;;;;;;;5036336;28;20486;-55
2021/05/28 13:28:01;;;;;;;6.30;3.50;;;;;;;;;;5036485;28;20454;-59
2021/05/28 13:30:31;;;;;;;4.53;3.80;;;;;;;;;;5016755;28;20479;-58
2021/05/28 13:33:27;;;;;;;7.93;3.10;;;;;;;;;;5036089;28;20451;-62
2021/05/28 13:35:55;;;;;;;4.67;3.00;;;;;;;;;;5035897;28;20569;-53
2021/05/28 13:38:26;;;;;;;6.60;3.70;;;;;;;;;;5036297;28;20496;-52
2021/05/28 13:40:54;;;;;;;3.37;2.47;;;;;;;;;;5036223;28;20485;-56
2021/05/28 13:43:24;;;;;;;7.53;3.50;;;;;;;;;;5037149;28;20482;-58
2021/05/28 13:46:00;;;;;;;8.40;3.67;;;;;;;;;;5056715;28;20466;-54
2021/05/28 13:48:27;;;;;;;7.40;4.57;;;;;;;;;;5055192;28;20466;-51
2021/05/28 13:50:55;;;;;;;11.03;5.00;;;;;;;;;;5039192;28;20467;-54
2021/05/28 13:53:22;;;;;;;12.03;6.17;;;;;;;;;;5035804;28;20442;-57
2021/05/28 13:55:50;;;;;;;7.10;5.00;;;;;;;;;;5035678;28;20431;-55
2021/05/28 13:58:29;;;;;;;9.37;4.97;;;;;;;;;;5035171;28;20521;-58
2021/05/28 14:00:56;;;;;;;6.97;4.93;;;;;;;;;;5034846;28;20883;-52
2021/05/28 14:03:26;;;;;;;7.60;3.90;;;;;;;;;;5035253;28;20493;-53
2021/05/28 14:05:56;;;;;;;11.80;5.43;;;;;;;;;;5029840;28;20465;-58
2021/05/28 14:08:23;;;;;;;6.90;4.40;;;;;;;;;;5035109;28;20478;-55
2021/05/28 14:10:50;;;;;;;8.20;4.60;;;;;;;;;;5043712;28;20755;-53
2021/05/28 14:13:18;;;;;;;6.50;4.50;;;;;;;;;;5049722;28;20439;-56
2021/05/28 14:15:46;;;;;;;6.80;3.40;;;;;;;;;;5035382;28;20478;-54
2021/05/28 14:18:12;;;;;;;8.03;4.60;;;;;;;;;;5035166;28;20450;-59
2021/05/28 14:20:41;;;;;;;5.97;4.10;;;;;;;;;;5036289;28;20475;-53
2021/05/28 14:23:10;;;;;;;9.83;5.60;;;;;;;;;;5016344;28;20507;-53
2021/05/28 14:25:38;;;;;;;6.03;3.67;;;;;;;;;;5016547;28;20444;-54
2021/05/28 14:28:07;;;;;;;8.67;4.97;;;;;;;;;;5015563;28;20444;-55
2021/05/28 14:30:35;;;;;;;8.23;3.67;;;;;;;;;;5015268;28;20515;-58
2021/05/28 14:33:05;;;;;;;6.80;3.33;;;;;;;;;;5020376;28;20526;-60
2021/05/28 14:35:41;;;;;;;6.97;3.57;;;;;;;;;;5022079;28;20444;-53
2021/05/28 14:38:11;;;;;;;5.43;4.00;;;;;;;;;;5024620;28;20442;-59
2021/05/28 14:40:51;;;;;;;5.50;3.63;;;;;;;;;;5032474;28;20478;-57
2021/05/28 14:43:17;;;;;;;5.13;3.80;;;;;;;;;;5034160;28;20573;-54
2021/05/28 14:45:44;;;;;;;8.50;3.97;;;;;;;;;;5043988;28;20497;-53
2021/05/28 14:48:12;;;;;;;6.60;3.70;;;;;;;;;;5059764;28;20446;-53
2021/05/28 14:50:39;;;;;;;7.20;3.67;;;;;;;;;;5059320;28;20474;-55
2021/05/28 14:53:06;;;;;;;4.50;2.80;;;;;;;;;;5043294;28;20473;-54
2021/05/28 14:55:43;;;;;;;8.33;4.03;;;;;;;;;;5039582;28;20427;-57
2021/05/28 14:58:11;;;;;;;4.93;3.20;;;;;;;;;;5039655;28;20465;-56